Terminal Aerodrome Forecast
Issued by NWS Denver/Boulder, CO

Home | Current Version | Previous Version | Text Only | Print | Product List | Glossary On
Versions: 1 2 3 4 5 6 7 8 9 10 11 12 13 14 15 16 17 18 19 20 21 22 23 24 25 26 27 28 29 30 31 32 33 34 35 36 37 38 39 40 41 42 43 44 45 46 47 48 49 50
000
FTUS45 KBOU 261741
TAFDEN
TAF
KDEN 261741Z 2618/2724 12010G18KT P6SM SCT025 SCT040 BKN220
      TEMPO 2621/2701 VRB15G35KT TSRAGS BKN030CB
     FM270100 18012KT P6SM SCT040 BKN120 BKN220
     FM270400 01011KT P6SM SCT030 BKN080
     FM271000 05007KT P6SM VCFG SCT010 BKN020
     FM271600 02012KT P6SM SCT025 BKN045
     FM271900 02012KT P6SM BKN030 OVC060
      TEMPO 2720/2724 -SHRA BKN020=

USA.gov is the U.S. government's official web portal to all federal, state and local government web resources and services.